createdAt,value
2023-04-16T00:01:57.334Z,4.20
2023-04-16T00:04:30.688Z,4.78
2023-04-16T00:07:03.923Z,6.35
2023-04-16T00:09:37.296Z,6.20
2023-04-16T00:12:10.654Z,10.20
2023-04-16T00:14:45.178Z,7.82
2023-04-16T00:17:18.346Z,5.75
2023-04-16T00:19:51.520Z,5.72
2023-04-16T00:22:24.770Z,5.30
2023-04-16T00:24:58.010Z,8.30
2023-04-16T00:27:31.176Z,8.55
2023-04-16T00:30:06.804Z,4.38
2023-04-16T00:32:40.151Z,5.97
2023-04-16T00:35:13.483Z,5.22
2023-04-16T00:37:46.629Z,6.78
2023-04-16T00:40:19.846Z,3.28
2023-04-16T00:42:53.059Z,3.45
2023-04-16T00:45:27.630Z,5.13
2023-04-16T00:48:01.733Z,5.32
2023-04-16T00:50:35.405Z,4.60
2023-04-16T00:53:08.813Z,5.70
2023-04-16T00:55:42.077Z,4.57
2023-04-16T00:58:15.901Z,3.45
2023-04-16T01:00:52.491Z,7.20
2023-04-16T01:03:30.109Z,6.60
2023-04-16T01:06:03.784Z,5.25
2023-04-16T01:08:37.130Z,5.03
2023-04-16T01:11:12.109Z,4.63
2023-04-16T01:13:45.390Z,3.88
2023-04-16T01:16:20.043Z,3.72
2023-04-16T01:18:53.292Z,3.53
2023-04-16T01:21:28.108Z,3.88
2023-04-16T01:24:04.206Z,3.20
2023-04-16T01:26:37.374Z,4.72
2023-04-16T01:29:11.105Z,3.67
2023-04-16T01:31:44.482Z,3.33
2023-04-16T01:34:41.786Z,3.97
2023-04-16T01:37:19.011Z,3.60
2023-04-16T01:39:52.645Z,5.00
2023-04-16T01:42:25.791Z,4.13
2023-04-16T01:44:59.012Z,3.95
2023-04-16T01:47:32.309Z,3.72
2023-04-16T01:50:06.514Z,4.20
2023-04-16T01:52:41.012Z,3.35
2023-04-16T01:55:14.666Z,3.88
2023-04-16T01:57:49.214Z,3.72
2023-04-16T02:00:22.548Z,5.65
2023-04-16T02:02:58.516Z,6.57
2023-04-16T02:05:34.029Z,3.25
2023-04-16T02:08:08.772Z,5.93
2023-04-16T02:10:41.998Z,5.15
2023-04-16T02:13:15.683Z,3.95
2023-04-16T02:15:52.229Z,4.55
2023-04-16T02:18:33.839Z,4.10
2023-04-16T02:21:07.842Z,3.55
2023-04-16T02:23:42.390Z,3.33
2023-04-16T02:26:15.814Z,4.18
2023-04-16T02:28:49.822Z,3.67
2023-04-16T02:31:24.265Z,5.75
2023-04-16T02:33:57.503Z,4.05
2023-04-16T02:36:31.507Z,3.05
2023-04-16T02:39:06.803Z,4.18
2023-04-16T02:41:40.028Z,3.28
2023-04-16T02:44:13.381Z,5.95
2023-04-16T02:46:46.559Z,2.90
2023-04-16T02:49:19.783Z,3.40
2023-04-16T02:51:54.750Z,3.92
2023-04-16T02:54:29.292Z,3.30
2023-04-16T02:57:03.454Z,3.50
2023-04-16T02:59:36.626Z,5.53
2023-04-16T03:02:09.817Z,4.32
2023-04-16T03:04:43.108Z,2.97
2023-04-16T03:07:17.446Z,3.10
2023-04-16T03:09:52.016Z,4.05
2023-04-16T03:12:25.291Z,3.88
2023-04-16T03:14:58.555Z,6.00
2023-04-16T03:17:31.714Z,3.67
2023-04-16T03:20:06.349Z,2.55
2023-04-16T03:22:40.160Z,4.40
2023-04-16T03:25:15.265Z,5.97
2023-04-16T03:27:48.438Z,3.30
2023-04-16T03:30:23.065Z,3.30
2023-04-16T03:32:56.287Z,3.53
2023-04-16T03:35:29.553Z,3.20
2023-04-16T03:38:03.017Z,3.47
2023-04-16T03:40:37.525Z,3.67
2023-04-16T03:43:10.801Z,4.55
2023-04-16T03:45:45.886Z,3.13
2023-04-16T03:48:19.556Z,5.22
2023-04-16T03:50:52.740Z,3.88
2023-04-16T03:53:26.953Z,5.47
2023-04-16T03:56:01.719Z,3.53
2023-04-16T03:58:35.229Z,3.33
2023-04-16T04:01:08.384Z,3.22
2023-04-16T04:03:42.348Z,9.10
2023-04-16T04:06:15.705Z,2.70
2023-04-16T04:08:48.892Z,2.60
2023-04-16T04:11:23.512Z,3.80
2023-04-16T04:13:59.084Z,4.68
2023-04-16T04:16:32.468Z,5.68
2023-04-16T04:19:06.131Z,6.78
2023-04-16T04:21:40.214Z,4.18
2023-04-16T04:24:13.473Z,5.85
2023-04-16T04:26:47.969Z,7.57
2023-04-16T04:29:21.229Z,2.83
2023-04-16T04:31:55.277Z,3.28
2023-04-16T04:34:29.351Z,2.55
2023-04-16T04:37:04.408Z,2.58
2023-04-16T04:39:37.588Z,2.80
2023-04-16T04:42:12.148Z,2.70
2023-04-16T04:44:46.041Z,2.75
2023-04-16T04:49:52.333Z,5.82
2023-04-16T04:52:26.462Z,5.80
2023-04-16T04:54:59.772Z,3.15
2023-04-16T04:57:34.277Z,3.65
2023-04-16T05:00:09.659Z,3.35
2023-04-16T05:02:49.706Z,2.45
2023-04-16T05:05:23.168Z,4.47
2023-04-16T05:07:56.328Z,3.20
2023-04-16T05:10:29.495Z,5.18
2023-04-16T05:13:03.989Z,6.65
2023-04-16T05:15:37.208Z,2.60
2023-04-16T05:18:10.372Z,8.32
2023-04-16T05:20:43.516Z,5.95
2023-04-16T05:23:16.794Z,3.83
2023-04-16T05:25:49.935Z,3.50
2023-04-16T05:28:24.480Z,4.95
2023-04-16T05:30:57.678Z,2.58
2023-04-16T05:33:30.846Z,2.92
2023-04-16T05:36:04.172Z,3.97
2023-04-16T05:38:37.322Z,3.00
2023-04-16T05:41:10.648Z,2.67
2023-04-16T05:43:45.277Z,3.20
2023-04-16T05:46:18.418Z,3.35
2023-04-16T05:48:51.565Z,2.75
2023-04-16T05:51:26.118Z,2.83
2023-04-16T05:53:59.291Z,5.55
2023-04-16T05:56:32.679Z,4.30
2023-04-16T05:59:07.376Z,4.68
2023-04-16T06:01:40.688Z,5.03
2023-04-16T06:04:14.057Z,3.45
2023-04-16T06:06:47.292Z,3.08
2023-04-16T06:09:20.500Z,7.03
2023-04-16T06:11:53.789Z,3.95
2023-04-16T06:14:28.325Z,3.45
2023-04-16T06:17:01.509Z,4.03
2023-04-16T06:19:34.739Z,3.65
2023-04-16T06:22:09.160Z,4.10
2023-04-16T06:24:42.529Z,3.15
2023-04-16T06:27:15.750Z,3.47
2023-04-16T06:29:50.642Z,3.30
2023-04-16T06:32:23.862Z,7.03
2023-04-16T06:34:58.701Z,5.75
2023-04-16T06:37:32.002Z,7.57
2023-04-16T06:40:06.277Z,5.50
2023-04-16T06:42:39.712Z,4.30
2023-04-16T06:45:14.928Z,6.70
2023-04-16T06:47:48.281Z,6.00
2023-04-16T06:50:22.257Z,4.00
2023-04-16T06:52:55.929Z,7.82
2023-04-16T06:55:29.138Z,4.90
2023-04-16T06:58:02.448Z,4.50
2023-04-16T07:00:37.199Z,11.88
2023-04-16T07:03:10.594Z,7.13
2023-04-16T07:05:43.907Z,8.57
2023-04-16T07:08:17.109Z,9.77
2023-04-16T07:10:50.340Z,4.90
2023-04-16T07:13:23.548Z,7.53
2023-04-16T07:15:58.079Z,11.07
2023-04-16T07:18:31.284Z,6.88
2023-04-16T07:21:05.208Z,7.00
2023-04-16T07:26:11.572Z,8.68
2023-04-16T07:28:44.782Z,7.53
2023-04-16T07:31:19.494Z,18.10
2023-04-16T07:33:52.817Z,7.05
2023-04-16T07:36:27.446Z,11.77
2023-04-16T07:39:00.663Z,6.15
2023-04-16T07:41:33.972Z,10.45
2023-04-16T07:44:07.193Z,4.68
2023-04-16T07:46:46.772Z,7.70
2023-04-16T07:49:20.775Z,4.38
2023-04-16T07:51:53.961Z,8.27
2023-04-16T07:54:28.998Z,8.80
2023-04-16T07:57:03.382Z,5.78
2023-04-16T07:59:36.563Z,10.95
2023-04-16T08:02:14.278Z,5.45
2023-04-16T08:04:47.822Z,9.70
2023-04-16T08:09:55.039Z,8.07
2023-04-16T08:12:28.323Z,5.45
2023-04-16T08:15:01.850Z,10.35
2023-04-16T08:17:37.886Z,10.82
2023-04-16T08:20:15.047Z,9.75
2023-04-16T08:22:51.150Z,9.05
2023-04-16T08:25:24.866Z,14.85
2023-04-16T08:28:01.484Z,9.43
2023-04-16T08:30:37.181Z,6.07
2023-04-16T08:33:12.497Z,11.00
2023-04-16T08:35:46.423Z,12.32
2023-04-16T08:38:22.422Z,15.13
2023-04-16T08:40:57.770Z,16.23
2023-04-16T08:43:35.873Z,11.80
2023-04-16T08:46:10.165Z,11.85
2023-04-16T08:48:49.391Z,10.77
2023-04-16T08:51:24.558Z,9.40
2023-04-16T08:54:04.760Z,10.48
2023-04-16T08:56:40.295Z,10.65
2023-04-16T08:59:15.506Z,8.95
2023-04-16T09:04:25.483Z,9.10
2023-04-16T09:07:00.233Z,9.65
2023-04-16T09:09:34.970Z,9.63
2023-04-16T09:12:09.770Z,14.45
2023-04-16T09:14:43.372Z,12.57
2023-04-16T09:17:17.934Z,13.68
2023-04-16T09:19:52.640Z,10.18
2023-04-16T09:22:26.007Z,14.98
2023-04-16T09:24:59.302Z,14.50
2023-04-16T09:27:32.954Z,12.13
2023-04-16T09:33:16.490Z,18.80
2023-04-16T09:35:52.771Z,13.00
2023-04-16T09:38:26.741Z,10.45
2023-04-16T09:41:09.587Z,12.93
2023-04-16T09:43:43.091Z,10.10
2023-04-16T09:46:16.547Z,13.95
2023-04-16T09:48:49.757Z,17.50
2023-04-16T09:51:24.879Z,14.32
2023-04-16T09:53:59.072Z,11.73
2023-04-16T09:56:32.956Z,14.20
2023-04-16T09:59:06.440Z,15.50
2023-04-16T10:01:40.717Z,22.15
2023-04-16T10:04:14.278Z,15.80
2023-04-16T10:07:05.032Z,26.52
2023-04-16T10:09:39.521Z,18.05
2023-04-16T10:12:13.641Z,13.98
2023-04-16T10:14:48.380Z,15.13
2023-04-16T10:17:24.063Z,14.18
2023-04-16T10:19:58.741Z,21.55
2023-04-16T10:22:33.647Z,19.58
2023-04-16T10:25:08.631Z,24.05
2023-04-16T10:27:42.563Z,17.08
2023-04-16T10:30:18.094Z,17.55
2023-04-16T10:32:52.426Z,17.05
2023-04-16T10:35:26.960Z,20.05
2023-04-16T10:38:25.894Z,18.05
2023-04-16T10:41:03.896Z,19.92
2023-04-16T10:43:41.970Z,17.27
2023-04-16T10:46:24.054Z,21.88
2023-04-16T10:49:01.565Z,18.98
2023-04-16T10:51:36.184Z,21.02
2023-04-16T10:54:24.575Z,15.60
2023-04-16T10:57:01.617Z,18.05
2023-04-16T10:59:37.781Z,15.63
2023-04-16T11:02:25.157Z,16.35
2023-04-16T11:04:59.756Z,19.13
2023-04-16T11:07:34.516Z,19.75
2023-04-16T11:10:14.554Z,18.98
2023-04-16T11:12:48.563Z,20.20
2023-04-16T11:15:23.380Z,19.83
2023-04-16T11:17:57.003Z,21.80
2023-04-16T11:20:30.217Z,16.63
2023-04-16T11:23:03.412Z,14.95
2023-04-16T11:25:38.187Z,20.88
2023-04-16T11:28:11.413Z,17.40
2023-04-16T11:30:44.833Z,15.80
2023-04-16T11:33:18.022Z,15.50
2023-04-16T11:35:58.879Z,18.88
2023-04-16T11:38:36.570Z,15.90
2023-04-16T11:41:11.661Z,13.23
2023-04-16T11:43:44.853Z,17.98
2023-04-16T11:46:27.072Z,18.55
2023-04-16T11:49:01.194Z,15.27
2023-04-16T11:51:34.580Z,26.45
2023-04-16T11:54:10.346Z,18.52
2023-04-16T11:56:48.657Z,14.75
2023-04-16T11:59:24.563Z,18.73
2023-04-16T12:01:58.021Z,14.73
2023-04-16T12:04:34.689Z,18.50
2023-04-16T12:07:12.196Z,14.05
2023-04-16T12:09:45.695Z,16.10
2023-04-16T12:12:31.423Z,20.70
2023-04-16T12:15:05.842Z,14.90
2023-04-16T12:17:40.256Z,17.70
2023-04-16T12:20:15.302Z,17.52
2023-04-16T12:22:50.743Z,11.68
2023-04-16T12:25:26.562Z,14.57
2023-04-16T12:28:01.717Z,12.57
2023-04-16T12:30:34.985Z,18.20
2023-04-16T12:33:19.097Z,17.90
2023-04-16T12:38:26.831Z,13.57
2023-04-16T12:41:02.370Z,11.35
2023-04-16T12:43:37.801Z,11.90
2023-04-16T12:46:11.026Z,12.80
2023-04-16T12:48:44.402Z,11.00
2023-04-16T12:51:17.620Z,12.48
2023-04-16T12:53:51.008Z,13.40
2023-04-16T12:56:24.231Z,10.50
2023-04-16T12:58:59.022Z,16.90
2023-04-16T13:01:32.292Z,10.75
2023-04-16T13:04:06.022Z,9.35
2023-04-16T13:06:39.606Z,11.32
2023-04-16T13:09:13.170Z,18.73
2023-04-16T13:11:46.743Z,15.50
2023-04-16T13:14:21.938Z,13.95
2023-04-16T13:16:55.243Z,20.20
2023-04-16T13:19:28.492Z,14.45
2023-04-16T13:22:01.794Z,15.25
2023-04-16T13:24:34.994Z,13.13
2023-04-16T13:27:08.716Z,15.90
2023-04-16T13:32:16.484Z,22.80
2023-04-16T13:34:49.718Z,14.23
2023-04-16T13:37:22.889Z,17.88
2023-04-16T13:39:56.509Z,15.68
2023-04-16T13:42:29.715Z,12.85
2023-04-16T13:45:04.329Z,15.60
2023-04-16T13:47:37.684Z,19.92
2023-04-16T13:50:11.679Z,13.45
2023-04-16T13:52:44.896Z,13.15
2023-04-16T13:55:19.179Z,19.95
2023-04-16T13:57:53.363Z,13.85
2023-04-16T14:00:28.545Z,11.77
2023-04-16T14:03:01.885Z,14.07
2023-04-16T14:05:35.161Z,12.55
2023-04-16T14:08:08.564Z,11.15
2023-04-16T14:10:41.773Z,12.77
2023-04-16T14:13:14.995Z,13.05
2023-04-16T14:15:49.620Z,13.88
2023-04-16T14:18:22.930Z,18.85
2023-04-16T14:20:56.087Z,18.52
2023-04-16T14:23:29.229Z,20.20
2023-04-16T14:26:02.534Z,14.32
2023-04-16T14:28:36.384Z,17.02
2023-04-16T14:31:11.095Z,12.40
2023-04-16T14:33:44.395Z,13.77
2023-04-16T14:36:17.565Z,15.10
2023-04-16T14:38:50.739Z,15.65
2023-04-16T14:41:24.023Z,16.70
2023-04-16T14:43:57.177Z,8.98
2023-04-16T14:46:33.717Z,17.48
2023-04-16T14:49:07.667Z,12.70
2023-04-16T14:51:42.579Z,12.25
2023-04-16T14:56:48.943Z,17.70
2023-04-16T14:59:22.151Z,16.27
2023-04-16T15:01:58.047Z,15.35
2023-04-16T15:04:32.047Z,18.20
2023-04-16T15:07:05.503Z,15.38
2023-04-16T15:09:38.937Z,12.52
2023-04-16T15:12:12.091Z,14.57
2023-04-16T15:14:45.333Z,12.52
2023-04-16T15:17:20.488Z,11.82
2023-04-16T15:19:54.102Z,15.50
2023-04-16T15:22:27.365Z,9.45
2023-04-16T15:25:00.585Z,11.23
2023-04-16T15:27:33.842Z,13.77
2023-04-16T15:30:08.328Z,14.00
2023-04-16T15:32:44.449Z,11.43
2023-04-16T15:35:17.710Z,8.70
2023-04-16T15:37:52.755Z,9.82
2023-04-16T15:40:26.480Z,12.18
2023-04-16T15:45:32.858Z,16.20
2023-04-16T15:48:07.956Z,13.80
2023-04-16T15:50:41.340Z,13.52
2023-04-16T15:53:14.656Z,10.52
2023-04-16T15:55:49.790Z,15.00
2023-04-16T15:58:23.080Z,26.58
2023-04-16T16:00:56.297Z,14.10
2023-04-16T16:03:32.969Z,13.73
2023-04-16T16:06:08.459Z,17.38
2023-04-16T16:08:43.633Z,12.98
2023-04-16T16:11:17.167Z,20.27
2023-04-16T16:13:50.323Z,13.80
2023-04-16T16:16:23.732Z,15.43
2023-04-16T16:18:58.312Z,15.98
2023-04-16T16:21:32.599Z,20.35
2023-04-16T16:24:06.116Z,13.82
2023-04-16T16:26:39.950Z,17.75
2023-04-16T16:29:13.307Z,19.67
2023-04-16T16:31:46.672Z,12.57
2023-04-16T16:34:21.612Z,17.10
2023-04-16T16:36:55.002Z,17.95
2023-04-16T16:39:28.321Z,14.00
2023-04-16T16:42:01.819Z,17.27
2023-04-16T16:44:35.415Z,24.35
2023-04-16T16:47:08.776Z,12.85
2023-04-16T16:49:43.392Z,12.35
2023-04-16T16:52:16.624Z,12.27
2023-04-16T16:54:49.790Z,14.90
2023-04-16T16:57:23.835Z,15.45
2023-04-16T16:59:57.520Z,13.50
2023-04-16T17:02:30.931Z,17.42
2023-04-16T17:05:06.262Z,16.15
2023-04-16T17:07:39.538Z,13.50
2023-04-16T17:10:19.952Z,16.77
2023-04-16T17:12:53.458Z,19.98
2023-04-16T17:15:26.739Z,17.13
2023-04-16T17:18:00.164Z,10.07
2023-04-16T17:20:34.734Z,12.80
2023-04-16T17:23:07.987Z,12.05
2023-04-16T17:25:41.461Z,6.72
2023-04-16T17:28:14.864Z,13.57
2023-04-16T17:30:52.872Z,9.15
2023-04-16T17:33:26.201Z,16.02
2023-04-16T17:36:00.799Z,10.30
2023-04-16T17:38:34.692Z,13.15
2023-04-16T17:41:08.926Z,16.65
2023-04-16T17:43:42.252Z,14.32
2023-04-16T17:46:15.756Z,8.95
2023-04-16T17:48:49.066Z,7.50
2023-04-16T17:51:23.649Z,7.70
2023-04-16T17:53:56.972Z,11.88
2023-04-16T17:56:30.290Z,13.77
2023-04-16T17:59:03.835Z,8.02
2023-04-16T18:04:11.408Z,9.93
2023-04-16T18:06:46.670Z,19.30
2023-04-16T18:09:20.180Z,17.48
2023-04-16T18:11:53.890Z,14.10
2023-04-16T18:17:02.566Z,7.27
2023-04-16T18:19:37.206Z,11.98
2023-04-16T18:22:13.363Z,10.98
2023-04-16T18:24:48.336Z,13.63
2023-04-16T18:27:23.278Z,13.13
2023-04-16T18:29:56.737Z,14.20
2023-04-16T18:32:33.673Z,11.73
2023-04-16T18:35:07.891Z,13.85
2023-04-16T18:37:44.386Z,15.93
2023-04-16T18:40:18.008Z,15.25
2023-04-16T18:42:51.372Z,10.07
2023-04-16T18:45:28.192Z,13.57
2023-04-16T18:48:03.622Z,11.20
2023-04-16T18:50:36.950Z,7.88
2023-04-16T18:53:11.578Z,9.25
2023-04-16T18:55:45.192Z,12.40
2023-04-16T18:58:18.509Z,15.80
2023-04-16T19:00:54.020Z,11.15
2023-04-16T19:03:28.671Z,11.38
2023-04-16T19:06:02.187Z,13.02
2023-04-16T19:08:36.952Z,12.40
2023-04-16T19:11:10.103Z,15.00
2023-04-16T19:13:43.293Z,14.45
2023-04-16T19:16:16.970Z,10.85
2023-04-16T19:18:50.851Z,14.15
2023-04-16T19:21:24.464Z,15.30
2023-04-16T19:23:59.487Z,13.50
2023-04-16T19:26:32.690Z,13.82
2023-04-16T19:29:05.859Z,14.48
2023-04-16T19:31:39.585Z,10.60
2023-04-16T19:34:13.956Z,11.82
2023-04-16T19:36:47.749Z,12.60
2023-04-16T19:39:31.468Z,17.52
2023-04-16T19:42:13.724Z,17.15
2023-04-16T19:45:01.219Z,17.00
2023-04-16T19:47:38.766Z,14.70
2023-04-16T19:50:17.492Z,12.82
2023-04-16T19:52:58.693Z,14.38
2023-04-16T19:55:42.845Z,11.45
2023-04-16T19:58:18.777Z,11.13
2023-04-16T20:00:58.354Z,11.98
2023-04-16T20:03:36.914Z,11.45
2023-04-16T20:06:10.233Z,14.80
2023-04-16T20:08:44.496Z,12.23
2023-04-16T20:11:19.186Z,12.18
2023-04-16T20:13:52.573Z,11.50
2023-04-16T20:16:25.963Z,10.80
2023-04-16T20:19:04.033Z,11.70
2023-04-16T20:21:40.355Z,13.13
2023-04-16T20:24:15.455Z,11.88
2023-04-16T20:26:50.248Z,13.48
2023-04-16T20:29:23.664Z,11.50
2023-04-16T20:31:57.208Z,9.50
2023-04-16T20:34:30.561Z,10.55
2023-04-16T20:37:03.936Z,13.15
2023-04-16T20:39:37.507Z,8.98
2023-04-16T20:44:50.709Z,10.32
2023-04-16T20:47:26.402Z,11.77
2023-04-16T20:50:01.803Z,11.70
2023-04-16T20:52:35.103Z,10.18
2023-04-16T20:55:09.606Z,14.20
2023-04-16T20:57:44.132Z,10.85
2023-04-16T21:00:18.031Z,10.13
2023-04-16T21:02:51.425Z,11.10
2023-04-16T21:05:26.597Z,11.05
2023-04-16T21:07:59.965Z,13.35
2023-04-16T21:10:33.291Z,17.42
2023-04-16T21:13:08.130Z,15.45
2023-04-16T21:15:42.623Z,10.05
2023-04-16T21:18:17.059Z,9.40
2023-04-16T21:20:50.420Z,11.65
2023-04-16T21:23:23.870Z,9.80
2023-04-16T21:25:57.238Z,11.02
2023-04-16T21:28:31.848Z,9.93
2023-04-16T21:31:05.103Z,10.20
2023-04-16T21:33:38.327Z,9.27
2023-04-16T21:36:11.895Z,7.90
2023-04-16T21:38:45.066Z,7.95
2023-04-16T21:41:18.266Z,10.20
2023-04-16T21:43:52.793Z,9.10
2023-04-16T21:46:26.689Z,9.63
2023-04-16T21:48:59.910Z,8.55
2023-04-16T21:51:33.202Z,10.50
2023-04-16T21:54:06.489Z,8.75
2023-04-16T21:56:39.672Z,8.85
2023-04-16T21:59:14.199Z,9.00
2023-04-16T22:01:47.437Z,9.10
2023-04-16T22:04:26.506Z,8.00
2023-04-16T22:07:03.230Z,8.52
2023-04-16T22:09:36.451Z,8.63
2023-04-16T22:12:10.288Z,7.53
2023-04-16T22:17:36.020Z,8.20
2023-04-16T22:22:45.544Z,7.78
2023-04-16T22:25:18.801Z,7.65
2023-04-16T22:27:52.000Z,8.32
2023-04-16T22:30:26.574Z,8.43
2023-04-16T22:32:59.831Z,6.97
2023-04-16T22:35:33.046Z,8.43
2023-04-16T22:38:06.486Z,8.82
2023-04-16T22:40:39.697Z,9.05
2023-04-16T22:43:12.877Z,8.52
2023-04-16T22:45:47.478Z,7.10
2023-04-16T22:48:20.716Z,8.25
2023-04-16T22:50:53.851Z,7.70
2023-04-16T22:53:27.025Z,10.80
2023-04-16T22:56:00.205Z,8.80
2023-04-16T22:58:33.356Z,6.78
2023-04-16T23:01:08.032Z,6.75
2023-04-16T23:03:41.384Z,9.02
2023-04-16T23:06:14.731Z,7.88
2023-04-16T23:08:47.862Z,7.20
2023-04-16T23:11:21.043Z,6.80
2023-04-16T23:13:54.236Z,8.20
2023-04-16T23:16:28.880Z,7.22
2023-04-16T23:19:02.079Z,6.20
2023-04-16T23:21:35.248Z,9.18
2023-04-16T23:24:08.732Z,12.77
2023-04-16T23:26:42.140Z,13.98
2023-04-16T23:29:15.270Z,7.43
2023-04-16T23:31:49.787Z,7.85
2023-04-16T23:34:23.029Z,7.15
2023-04-16T23:36:56.174Z,8.70
2023-04-16T23:39:29.347Z,6.68
2023-04-16T23:42:02.491Z,6.50
2023-04-16T23:44:35.754Z,6.22
2023-04-16T23:47:10.264Z,7.80
2023-04-16T23:49:43.415Z,6.43
2023-04-16T23:52:16.550Z,6.35
2023-04-16T23:54:49.703Z,7.57
2023-04-16T23:57:22.858Z,7.10
2023-04-16T23:59:56.215Z,6.70
